首页
METAR-TAF:

METAR-TAF

机场 :

Gaylord Regional Airport (Otsego County Airport)

Gaylord, 密歇根州, 美国

纬度: 45-00-59N, 经度: 084-41-20W, 海拔: 404米

当前天气观测

该预报发布于1小时和0分钟前的10:53 UTC
风速10节,风向西北,有时为21节阵风
温度 -9°C
湿度 73%
气压 1008 hPa
能見度: 14.5公里
阴天层高于2300英尺

METAR: KGLR 271053Z AUTO 31010G21KT 9SM OVC023 M09/M13 A2977 RMK AO2 SNB12E50 SLP102 P0000 T10941133

时间: 06:53 (11:53 UTC)


TAF: 丢失

超过4000个机场的气象观测和天气预报(METAR&TAF报告)。

可查询的气象台以黄色和红色小点在地图上表示。

将鼠标移到小点上方,可查看气象台名称。

然后点击查看天气观测和预报。

如需切换地图:点击带黑十字的绿色按钮放大地图;点击带横线的绿色按钮缩小地图;或者点击绿色箭头查看邻近地区的地图。


METAR-TAF: